sensor_id;sensor_type;location;lat;lon;timestamp;pressure;altitude;pressure_sealevel;temperature;humidity
28701;BME280;15877;52.344;16.790;2023-01-27T00:01:29;101095.06;;;5.52;72.00
28701;BME280;15877;52.344;16.790;2023-01-27T00:04:01;101077.69;;;5.49;71.79
28701;BME280;15877;52.344;16.790;2023-01-27T00:06:38;101083.58;;;5.53;72.32
28701;BME280;15877;52.344;16.790;2023-01-27T00:09:10;101081.97;;;5.49;72.59
28701;BME280;15877;52.344;16.790;2023-01-27T00:11:46;101080.65;;;5.51;72.68
28701;BME280;15877;52.344;16.790;2023-01-27T00:14:36;101064.36;;;5.44;72.68
28701;BME280;15877;52.344;16.790;2023-01-27T00:17:08;101079.42;;;5.53;72.68
28701;BME280;15877;52.344;16.790;2023-01-27T00:19:41;101081.91;;;5.51;72.60
28701;BME280;15877;52.344;16.790;2023-01-27T00:22:14;101077.29;;;5.47;72.73
28701;BME280;15877;52.344;16.790;2023-01-27T00:25:05;101080.50;;;5.53;72.47
28701;BME280;15877;52.344;16.790;2023-01-27T00:27:38;101078.91;;;5.52;72.44
28701;BME280;15877;52.344;16.790;2023-01-27T00:30:11;101078.77;;;5.54;72.50
28701;BME280;15877;52.344;16.790;2023-01-27T00:32:45;101081.48;;;5.53;72.74
28701;BME280;15877;52.344;16.790;2023-01-27T00:35:35;101076.81;;;5.53;72.83
28701;BME280;15877;52.344;16.790;2023-01-27T00:38:07;101074.53;;;5.59;72.57
28701;BME280;15877;52.344;16.790;2023-01-27T00:40:40;101073.59;;;5.53;72.80
28701;BME280;15877;52.344;16.790;2023-01-27T00:43:32;101076.14;;;5.52;72.89
28701;BME280;15877;52.344;16.790;2023-01-27T00:46:05;101080.46;;;5.52;72.87
28701;BME280;15877;52.344;16.790;2023-01-27T00:48:38;101081.20;;;5.51;72.75
28701;BME280;15877;52.344;16.790;2023-01-27T00:51:11;101078.01;;;5.49;72.97
28701;BME280;15877;52.344;16.790;2023-01-27T00:53:44;101085.09;;;5.52;72.74
28701;BME280;15877;52.344;16.790;2023-01-27T00:56:17;101091.48;;;5.48;72.85
28701;BME280;15877;52.344;16.790;2023-01-27T00:58:50;101093.60;;;5.49;72.96
28701;BME280;15877;52.344;16.790;2023-01-27T01:01:24;101092.34;;;5.49;73.09
28701;BME280;15877;52.344;16.790;2023-01-27T01:03:58;101092.37;;;5.48;72.93
28701;BME280;15877;52.344;16.790;2023-01-27T01:06:31;101097.98;;;5.48;72.89
28701;BME280;15877;52.344;16.790;2023-01-27T01:09:04;101095.85;;;5.42;73.03
28701;BME280;15877;52.344;16.790;2023-01-27T01:11:36;101099.41;;;5.50;72.78
28701;BME280;15877;52.344;16.790;2023-01-27T01:14:09;101102.71;;;5.48;72.69
28701;BME280;15877;52.344;16.790;2023-01-27T01:16:42;101105.29;;;5.49;72.56
28701;BME280;15877;52.344;16.790;2023-01-27T01:19:14;101106.20;;;5.48;72.64
28701;BME280;15877;52.344;16.790;2023-01-27T01:21:47;101103.25;;;5.42;72.72
28701;BME280;15877;52.344;16.790;2023-01-27T01:24:20;101102.02;;;5.40;72.72
28701;BME280;15877;52.344;16.790;2023-01-27T01:26:52;101104.83;;;5.39;72.64
28701;BME280;15877;52.344;16.790;2023-01-27T01:29:25;101105.07;;;5.38;72.53
28701;BME280;15877;52.344;16.790;2023-01-27T01:31:58;101099.78;;;5.33;72.63
28701;BME280;15877;52.344;16.790;2023-01-27T01:34:32;101102.17;;;5.32;72.53
28701;BME280;15877;52.344;16.790;2023-01-27T01:37:04;101101.48;;;5.31;72.56
28701;BME280;15877;52.344;16.790;2023-01-27T01:39:37;101104.66;;;5.32;72.47
28701;BME280;15877;52.344;16.790;2023-01-27T01:42:10;101104.68;;;5.25;72.82
28701;BME280;15877;52.344;16.790;2023-01-27T01:44:44;101105.70;;;5.30;72.52
28701;BME280;15877;52.344;16.790;2023-01-27T01:47:18;101108.44;;;5.33;72.18
28701;BME280;15877;52.344;16.790;2023-01-27T01:49:51;101109.86;;;5.33;72.03
28701;BME280;15877;52.344;16.790;2023-01-27T01:52:23;101105.82;;;5.34;71.80
28701;BME280;15877;52.344;16.790;2023-01-27T01:54:56;101101.60;;;5.34;71.69
28701;BME280;15877;52.344;16.790;2023-01-27T01:57:31;101102.04;;;5.33;71.69
28701;BME280;15877;52.344;16.790;2023-01-27T02:00:09;101102.63;;;5.25;71.76
28701;BME280;15877;52.344;16.790;2023-01-27T02:02:46;101104.30;;;5.27;71.68
28701;BME280;15877;52.344;16.790;2023-01-27T02:05:24;101102.67;;;5.21;71.77
28701;BME280;15877;52.344;16.790;2023-01-27T02:08:26;101103.20;;;5.12;72.00
28701;BME280;15877;52.344;16.790;2023-01-27T02:11:01;101100.04;;;5.16;71.96
28701;BME280;15877;52.344;16.790;2023-01-27T02:13:34;101102.36;;;5.20;71.77
28701;BME280;15877;52.344;16.790;2023-01-27T02:16:08;101100.29;;;5.19;71.66
28701;BME280;15877;52.344;16.790;2023-01-27T02:18:40;101104.77;;;5.16;71.69
28701;BME280;15877;52.344;16.790;2023-01-27T02:21:12;101087.77;;;5.12;71.49
28701;BME280;15877;52.344;16.790;2023-01-27T02:23:55;101097.62;;;5.18;71.50
28701;BME280;15877;52.344;16.790;2023-01-27T02:26:30;101101.35;;;5.14;71.64
28701;BME280;15877;52.344;16.790;2023-01-27T02:29:06;101102.52;;;5.16;71.37
28701;BME280;15877;52.344;16.790;2023-01-27T02:31:39;101104.19;;;5.13;71.36
28701;BME280;15877;52.344;16.790;2023-01-27T02:34:15;101087.94;;;4.99;71.56
28701;BME280;15877;52.344;16.790;2023-01-27T02:36:51;101109.39;;;5.15;71.36
28701;BME280;15877;52.344;16.790;2023-01-27T02:39:28;101097.98;;;5.03;71.27
28701;BME280;15877;52.344;16.790;2023-01-27T02:42:05;101114.46;;;5.21;71.17
28701;BME280;15877;52.344;16.790;2023-01-27T02:44:38;101098.81;;;5.17;70.77
28701;BME280;15877;52.344;16.790;2023-01-27T02:47:11;101118.51;;;5.13;71.04
28701;BME280;15877;52.344;16.790;2023-01-27T02:49:45;101120.64;;;5.09;71.43
28701;BME280;15877;52.344;16.790;2023-01-27T02:52:19;101124.34;;;5.06;71.68
28701;BME280;15877;52.344;16.790;2023-01-27T02:54:53;101127.06;;;5.04;71.75
28701;BME280;15877;52.344;16.790;2023-01-27T02:57:26;101128.41;;;5.11;71.32
28701;BME280;15877;52.344;16.790;2023-01-27T03:00:13;101131.34;;;5.13;71.12
28701;BME280;15877;52.344;16.790;2023-01-27T03:02:48;101131.04;;;5.08;71.14
28701;BME280;15877;52.344;16.790;2023-01-27T03:05:21;101127.23;;;5.07;71.17
28701;BME280;15877;52.344;16.790;2023-01-27T03:07:54;101123.58;;;5.14;70.94
28701;BME280;15877;52.344;16.790;2023-01-27T03:10:26;101125.69;;;5.10;70.97
28701;BME280;15877;52.344;16.790;2023-01-27T03:13:01;101125.56;;;5.04;71.13
28701;BME280;15877;52.344;16.790;2023-01-27T03:15:33;101126.89;;;5.01;71.03
28701;BME280;15877;52.344;16.790;2023-01-27T03:18:25;101132.04;;;5.07;70.98
28701;BME280;15877;52.344;16.790;2023-01-27T03:21:01;101131.65;;;5.04;70.91
28701;BME280;15877;52.344;16.790;2023-01-27T03:23:34;101118.11;;;5.04;70.78
28701;BME280;15877;52.344;16.790;2023-01-27T03:26:08;101127.15;;;5.07;70.61
28701;BME280;15877;52.344;16.790;2023-01-27T03:28:43;101129.55;;;5.05;70.62
28701;BME280;15877;52.344;16.790;2023-01-27T03:31:36;101126.85;;;5.07;70.75
28701;BME280;15877;52.344;16.790;2023-01-27T03:34:09;101128.02;;;5.09;70.62
28701;BME280;15877;52.344;16.790;2023-01-27T03:36:51;101117.10;;;5.00;70.56
28701;BME280;15877;52.344;16.790;2023-01-27T03:39:41;101110.64;;;4.98;70.64
28701;BME280;15877;52.344;16.790;2023-01-27T03:42:32;101127.22;;;5.08;70.50
28701;BME280;15877;52.344;16.790;2023-01-27T03:45:24;101123.06;;;5.10;70.69
28701;BME280;15877;52.344;16.790;2023-01-27T03:48:14;101122.30;;;5.06;70.93
28701;BME280;15877;52.344;16.790;2023-01-27T03:50:47;101126.08;;;5.08;70.95
28701;BME280;15877;52.344;16.790;2023-01-27T03:53:22;101121.48;;;5.06;70.72
28701;BME280;15877;52.344;16.790;2023-01-27T03:55:54;101123.00;;;5.09;70.42
28701;BME280;15877;52.344;16.790;2023-01-27T03:58:28;101123.89;;;5.09;70.30
28701;BME280;15877;52.344;16.790;2023-01-27T04:01:02;101124.01;;;5.11;70.34
28701;BME280;15877;52.344;16.790;2023-01-27T04:03:35;101122.60;;;5.10;70.33
28701;BME280;15877;52.344;16.790;2023-01-27T04:06:28;101122.67;;;5.07;70.65
28701;BME280;15877;52.344;16.790;2023-01-27T04:09:21;101125.44;;;5.09;70.95
28701;BME280;15877;52.344;16.790;2023-01-27T04:11:56;101131.12;;;5.11;70.52
28701;BME280;15877;52.344;16.790;2023-01-27T04:14:33;101134.39;;;5.13;70.41
28701;BME280;15877;52.344;16.790;2023-01-27T04:17:09;101141.86;;;5.16;70.21
28701;BME280;15877;52.344;16.790;2023-01-27T04:19:43;101141.45;;;5.15;70.23
28701;BME280;15877;52.344;16.790;2023-01-27T04:22:17;101142.79;;;5.14;70.36
28701;BME280;15877;52.344;16.790;2023-01-27T04:24:49;101140.39;;;5.13;70.17
28701;BME280;15877;52.344;16.790;2023-01-27T04:27:22;101145.45;;;5.16;70.09
28701;BME280;15877;52.344;16.790;2023-01-27T04:29:54;101150.14;;;5.10;70.12
28701;BME280;15877;52.344;16.790;2023-01-27T04:32:27;101148.08;;;5.04;70.16
28701;BME280;15877;52.344;16.790;2023-01-27T04:35:00;101150.45;;;5.11;70.01
28701;BME280;15877;52.344;16.790;2023-01-27T04:37:33;101152.96;;;5.10;69.93
28701;BME280;15877;52.344;16.790;2023-01-27T04:40:08;101155.16;;;5.10;69.86
28701;BME280;15877;52.344;16.790;2023-01-27T04:42:41;101160.56;;;5.12;69.67
28701;BME280;15877;52.344;16.790;2023-01-27T04:45:17;101157.40;;;5.03;69.84
28701;BME280;15877;52.344;16.790;2023-01-27T04:47:50;101139.79;;;4.90;70.17
28701;BME280;15877;52.344;16.790;2023-01-27T04:50:22;101161.22;;;5.03;70.27
28701;BME280;15877;52.344;16.790;2023-01-27T04:52:55;101156.55;;;5.02;70.20
28701;BME280;15877;52.344;16.790;2023-01-27T04:55:30;101154.85;;;5.04;70.21
28701;BME280;15877;52.344;16.790;2023-01-27T04:58:02;101153.41;;;5.09;70.02
28701;BME280;15877;52.344;16.790;2023-01-27T05:00:34;101159.25;;;5.11;69.91
28701;BME280;15877;52.344;16.790;2023-01-27T05:03:07;101156.05;;;5.05;70.56
28701;BME280;15877;52.344;16.790;2023-01-27T05:05:40;101157.46;;;5.03;70.81
28701;BME280;15877;52.344;16.790;2023-01-27T05:08:15;101161.58;;;5.00;70.91
28701;BME280;15877;52.344;16.790;2023-01-27T05:10:48;101164.64;;;5.00;71.10
28701;BME280;15877;52.344;16.790;2023-01-27T05:13:23;101164.08;;;5.00;71.09
28701;BME280;15877;52.344;16.790;2023-01-27T05:16:09;101168.09;;;5.06;71.05
28701;BME280;15877;52.344;16.790;2023-01-27T05:18:43;101173.63;;;5.02;71.18
28701;BME280;15877;52.344;16.790;2023-01-27T05:21:20;101173.95;;;5.02;71.32
28701;BME280;15877;52.344;16.790;2023-01-27T05:23:53;101169.87;;;5.03;71.37
28701;BME280;15877;52.344;16.790;2023-01-27T05:26:26;101178.23;;;5.03;71.30
28701;BME280;15877;52.344;16.790;2023-01-27T05:28:59;101165.43;;;4.86;71.39
28701;BME280;15877;52.344;16.790;2023-01-27T05:31:32;101177.08;;;4.89;71.69
28701;BME280;15877;52.344;16.790;2023-01-27T05:34:05;101177.06;;;4.90;71.75
28701;BME280;15877;52.344;16.790;2023-01-27T05:36:37;101180.78;;;4.93;71.69
28701;BME280;15877;52.344;16.790;2023-01-27T05:39:11;101181.98;;;4.94;71.77
28701;BME280;15877;52.344;16.790;2023-01-27T05:41:42;101183.96;;;4.92;71.72
28701;BME280;15877;52.344;16.790;2023-01-27T05:44:15;101180.30;;;4.99;71.54
28701;BME280;15877;52.344;16.790;2023-01-27T05:46:48;101183.81;;;4.94;71.66
28701;BME280;15877;52.344;16.790;2023-01-27T05:49:20;101188.23;;;4.90;71.87
28701;BME280;15877;52.344;16.790;2023-01-27T05:51:53;101190.66;;;4.95;71.93
28701;BME280;15877;52.344;16.790;2023-01-27T05:54:25;101187.34;;;4.88;72.07
28701;BME280;15877;52.344;16.790;2023-01-27T05:56:58;101191.68;;;4.87;72.38
28701;BME280;15877;52.344;16.790;2023-01-27T05:59:30;101190.64;;;4.91;72.35
28701;BME280;15877;52.344;16.790;2023-01-27T06:02:03;101188.96;;;4.85;72.54
28701;BME280;15877;52.344;16.790;2023-01-27T06:04:35;101186.30;;;4.84;72.89
28701;BME280;15877;52.344;16.790;2023-01-27T06:07:08;101189.83;;;4.84;72.98
28701;BME280;15877;52.344;16.790;2023-01-27T06:09:41;101192.45;;;4.87;73.03
28701;BME280;15877;52.344;16.790;2023-01-27T06:12:17;101194.64;;;4.80;73.31
28701;BME280;15877;52.344;16.790;2023-01-27T06:14:50;101196.40;;;4.77;73.59
28701;BME280;15877;52.344;16.790;2023-01-27T06:17:23;101196.98;;;4.83;73.47
28701;BME280;15877;52.344;16.790;2023-01-27T06:19:55;101202.77;;;4.86;73.39
28701;BME280;15877;52.344;16.790;2023-01-27T06:22:28;101189.67;;;4.81;73.14
28701;BME280;15877;52.344;16.790;2023-01-27T06:25:00;101207.81;;;4.94;73.11
28701;BME280;15877;52.344;16.790;2023-01-27T06:27:33;101205.58;;;4.93;73.12
28701;BME280;15877;52.344;16.790;2023-01-27T06:30:07;101205.48;;;4.88;73.29
28701;BME280;15877;52.344;16.790;2023-01-27T06:32:39;101207.88;;;4.84;73.77
28701;BME280;15877;52.344;16.790;2023-01-27T06:35:12;101207.95;;;4.88;73.55
28701;BME280;15877;52.344;16.790;2023-01-27T06:37:46;101211.08;;;4.91;73.46
28701;BME280;15877;52.344;16.790;2023-01-27T06:40:20;101215.00;;;4.90;73.67
28701;BME280;15877;52.344;16.790;2023-01-27T06:42:53;101216.14;;;4.94;73.65
28701;BME280;15877;52.344;16.790;2023-01-27T06:45:26;101212.37;;;4.90;73.92
28701;BME280;15877;52.344;16.790;2023-01-27T06:48:02;101210.41;;;4.81;74.22
28701;BME280;15877;52.344;16.790;2023-01-27T06:50:35;101208.61;;;4.90;73.86
28701;BME280;15877;52.344;16.790;2023-01-27T06:53:08;101207.50;;;4.89;73.85
28701;BME280;15877;52.344;16.790;2023-01-27T06:55:40;101207.58;;;4.93;73.88
28701;BME280;15877;52.344;16.790;2023-01-27T06:58:14;101206.11;;;4.92;73.73
28701;BME280;15877;52.344;16.790;2023-01-27T07:00:47;101202.90;;;4.87;74.09
28701;BME280;15877;52.344;16.790;2023-01-27T07:03:19;101204.34;;;4.87;74.23
28701;BME280;15877;52.344;16.790;2023-01-27T07:05:52;101205.42;;;4.91;73.94
28701;BME280;15877;52.344;16.790;2023-01-27T07:08:25;101208.54;;;4.84;74.49
28701;BME280;15877;52.344;16.790;2023-01-27T07:10:57;101213.20;;;4.82;74.55
28701;BME280;15877;52.344;16.790;2023-01-27T07:13:33;101207.06;;;4.89;74.25
28701;BME280;15877;52.344;16.790;2023-01-27T07:16:06;101213.98;;;4.82;74.67
28701;BME280;15877;52.344;16.790;2023-01-27T07:18:39;101215.21;;;4.86;74.50
28701;BME280;15877;52.344;16.790;2023-01-27T07:21:11;101218.00;;;4.86;74.54
28701;BME280;15877;52.344;16.790;2023-01-27T07:23:44;101216.96;;;4.86;74.66
28701;BME280;15877;52.344;16.790;2023-01-27T07:26:16;101213.39;;;4.88;74.34
28701;BME280;15877;52.344;16.790;2023-01-27T07:28:55;101210.36;;;4.78;74.39
28701;BME280;15877;52.344;16.790;2023-01-27T07:31:28;101213.59;;;4.81;74.40
28701;BME280;15877;52.344;16.790;2023-01-27T07:34:01;101213.80;;;4.87;74.27
28701;BME280;15877;52.344;16.790;2023-01-27T07:36:33;101219.55;;;4.83;74.28
28701;BME280;15877;52.344;16.790;2023-01-27T07:39:06;101223.86;;;4.90;74.10
28701;BME280;15877;52.344;16.790;2023-01-27T07:41:39;101228.21;;;4.88;74.30
28701;BME280;15877;52.344;16.790;2023-01-27T07:44:14;101225.68;;;4.87;74.21
28701;BME280;15877;52.344;16.790;2023-01-27T07:46:48;101228.70;;;4.96;73.65
28701;BME280;15877;52.344;16.790;2023-01-27T07:49:20;101224.41;;;4.86;73.70
28701;BME280;15877;52.344;16.790;2023-01-27T07:51:52;101243.67;;;4.96;73.86
28701;BME280;15877;52.344;16.790;2023-01-27T07:54:25;101235.04;;;4.83;74.09
28701;BME280;15877;52.344;16.790;2023-01-27T07:56:59;101253.91;;;4.94;74.07
28701;BME280;15877;52.344;16.790;2023-01-27T07:59:30;101256.26;;;4.92;73.98
28701;BME280;15877;52.344;16.790;2023-01-27T08:02:03;101256.98;;;4.95;73.91
28701;BME280;15877;52.344;16.790;2023-01-27T08:04:35;101258.79;;;4.74;74.69
28701;BME280;15877;52.344;16.790;2023-01-27T08:07:23;101262.77;;;4.92;74.18
28701;BME280;15877;52.344;16.790;2023-01-27T08:09:55;101264.36;;;4.98;74.02
28701;BME280;15877;52.344;16.790;2023-01-27T08:12:27;101261.88;;;4.92;74.06
28701;BME280;15877;52.344;16.790;2023-01-27T08:15:00;101264.99;;;4.97;73.90
28701;BME280;15877;52.344;16.790;2023-01-27T08:17:33;101269.82;;;5.00;73.83
28701;BME280;15877;52.344;16.790;2023-01-27T08:20:07;101274.92;;;5.01;74.09
28701;BME280;15877;52.344;16.790;2023-01-27T08:22:40;101272.73;;;5.11;73.96
28701;BME280;15877;52.344;16.790;2023-01-27T08:25:12;101260.11;;;5.04;73.80
28701;BME280;15877;52.344;16.790;2023-01-27T08:27:45;101284.06;;;5.10;74.06
28701;BME280;15877;52.344;16.790;2023-01-27T08:30:20;101279.38;;;5.13;73.94
28701;BME280;15877;52.344;16.790;2023-01-27T08:32:54;101283.87;;;5.19;73.72
28701;BME280;15877;52.344;16.790;2023-01-27T08:35:26;101284.12;;;5.15;74.11
28701;BME280;15877;52.344;16.790;2023-01-27T08:37:59;101282.95;;;5.15;74.24
28701;BME280;15877;52.344;16.790;2023-01-27T08:40:31;101288.21;;;5.11;74.28
28701;BME280;15877;52.344;16.790;2023-01-27T08:43:04;101273.77;;;5.10;74.01
28701;BME280;15877;52.344;16.790;2023-01-27T08:45:37;101293.02;;;5.23;73.81
28701;BME280;15877;52.344;16.790;2023-01-27T08:48:09;101299.90;;;5.29;73.65
28701;BME280;15877;52.344;16.790;2023-01-27T08:50:43;101293.01;;;5.19;73.93
28701;BME280;15877;52.344;16.790;2023-01-27T08:53:15;101301.91;;;5.23;73.87
28701;BME280;15877;52.344;16.790;2023-01-27T08:55:48;101300.71;;;5.12;74.30
28701;BME280;15877;52.344;16.790;2023-01-27T08:58:20;101302.15;;;5.14;74.60
28701;BME280;15877;52.344;16.790;2023-01-27T09:00:53;101293.73;;;5.24;74.24
28701;BME280;15877;52.344;16.790;2023-01-27T09:03:26;101302.27;;;5.21;74.20
28701;BME280;15877;52.344;16.790;2023-01-27T09:05:59;101299.23;;;5.14;74.46
28701;BME280;15877;52.344;16.790;2023-01-27T09:08:31;101302.52;;;5.12;74.71
28701;BME280;15877;52.344;16.790;2023-01-27T09:11:11;101302.94;;;5.21;74.75
28701;BME280;15877;52.344;16.790;2023-01-27T09:13:44;101301.51;;;5.29;74.49
28701;BME280;15877;52.344;16.790;2023-01-27T09:16:17;101301.14;;;5.28;74.77
28701;BME280;15877;52.344;16.790;2023-01-27T09:18:50;101307.61;;;5.29;74.39
28701;BME280;15877;52.344;16.790;2023-01-27T09:21:22;101286.98;;;5.26;73.98
28701;BME280;15877;52.344;16.790;2023-01-27T09:23:57;101302.77;;;5.31;74.49
28701;BME280;15877;52.344;16.790;2023-01-27T09:26:30;101303.59;;;5.32;74.77
28701;BME280;15877;52.344;16.790;2023-01-27T09:29:02;101302.84;;;5.35;74.35
28701;BME280;15877;52.344;16.790;2023-01-27T09:31:35;101303.45;;;5.31;74.11
28701;BME280;15877;52.344;16.790;2023-01-27T09:34:07;101304.27;;;5.33;74.15
28701;BME280;15877;52.344;16.790;2023-01-27T09:36:42;101303.84;;;5.31;74.67
28701;BME280;15877;52.344;16.790;2023-01-27T09:39:18;101303.17;;;5.38;74.92
28701;BME280;15877;52.344;16.790;2023-01-27T09:42:02;101299.16;;;5.45;74.75
28701;BME280;15877;52.344;16.790;2023-01-27T09:44:51;101302.42;;;5.47;74.47
28701;BME280;15877;52.344;16.790;2023-01-27T09:47:44;101304.04;;;5.54;74.33
28701;BME280;15877;52.344;16.790;2023-01-27T09:50:32;101305.79;;;5.60;74.16
28701;BME280;15877;52.344;16.790;2023-01-27T09:53:35;101311.30;;;5.62;73.66
28701;BME280;15877;52.344;16.790;2023-01-27T09:56:16;101304.63;;;5.60;73.53
28701;BME280;15877;52.344;16.790;2023-01-27T09:59:05;101308.50;;;5.62;73.32
28701;BME280;15877;52.344;16.790;2023-01-27T10:01:49;101309.47;;;5.58;72.59
28701;BME280;15877;52.344;16.790;2023-01-27T10:04:38;101305.96;;;5.54;72.22
28701;BME280;15877;52.344;16.790;2023-01-27T10:07:30;101318.19;;;5.60;71.66
28701;BME280;15877;52.344;16.790;2023-01-27T10:10:18;101318.30;;;5.67;71.46
28701;BME280;15877;52.344;16.790;2023-01-27T10:13:03;101316.40;;;5.66;70.78
28701;BME280;15877;52.344;16.790;2023-01-27T10:15:51;101320.60;;;5.68;69.80
28701;BME280;15877;52.344;16.790;2023-01-27T10:18:49;101327.89;;;5.68;68.95
28701;BME280;15877;52.344;16.790;2023-01-27T10:21:33;101326.98;;;5.59;68.23
28701;BME280;15877;52.344;16.790;2023-01-27T10:24:16;101309.74;;;5.32;67.99
28701;BME280;15877;52.344;16.790;2023-01-27T10:26:57;101328.52;;;5.51;68.03
28701;BME280;15877;52.344;16.790;2023-01-27T10:29:35;101324.79;;;5.50;67.79
28701;BME280;15877;52.344;16.790;2023-01-27T10:32:17;101327.21;;;5.46;68.37
28701;BME280;15877;52.344;16.790;2023-01-27T10:35:06;101329.81;;;5.35;68.67
28701;BME280;15877;52.344;16.790;2023-01-27T10:37:48;101329.79;;;5.44;68.59
28701;BME280;15877;52.344;16.790;2023-01-27T10:40:33;101328.80;;;5.46;68.85
28701;BME280;15877;52.344;16.790;2023-01-27T10:43:11;101323.27;;;5.52;68.98
28701;BME280;15877;52.344;16.790;2023-01-27T10:45:51;101320.45;;;5.50;68.92
28701;BME280;15877;52.344;16.790;2023-01-27T10:48:36;101328.13;;;5.59;68.81
28701;BME280;15877;52.344;16.790;2023-01-27T10:51:16;101332.89;;;5.63;68.71
28701;BME280;15877;52.344;16.790;2023-01-27T10:53:54;101327.79;;;5.60;68.91
28701;BME280;15877;52.344;16.790;2023-01-27T10:56:34;101332.50;;;5.68;68.70
28701;BME280;15877;52.344;16.790;2023-01-27T10:59:13;101339.44;;;5.68;68.50
28701;BME280;15877;52.344;16.790;2023-01-27T11:01:50;101337.73;;;5.74;68.24
28701;BME280;15877;52.344;16.790;2023-01-27T11:04:31;101338.81;;;5.77;68.06
28701;BME280;15877;52.344;16.790;2023-01-27T11:07:08;101340.36;;;5.77;68.18
28701;BME280;15877;52.344;16.790;2023-01-27T11:09:51;101338.86;;;5.80;68.23
28701;BME280;15877;52.344;16.790;2023-01-27T11:12:30;101342.82;;;5.81;68.07
28701;BME280;15877;52.344;16.790;2023-01-27T11:15:16;101341.13;;;5.80;67.96
28701;BME280;15877;52.344;16.790;2023-01-27T11:17:55;101339.90;;;5.77;67.97
28701;BME280;15877;52.344;16.790;2023-01-27T11:20:32;101321.39;;;5.73;67.59
28701;BME280;15877;52.344;16.790;2023-01-27T11:23:12;101342.48;;;5.89;67.50
28701;BME280;15877;52.344;16.790;2023-01-27T11:25:49;101343.86;;;5.86;67.35
28701;BME280;15877;52.344;16.790;2023-01-27T11:28:33;101345.97;;;5.86;67.25
28701;BME280;15877;52.344;16.790;2023-01-27T11:31:13;101353.48;;;5.88;67.24
28701;BME280;15877;52.344;16.790;2023-01-27T11:33:55;101354.36;;;5.85;67.35
28701;BME280;15877;52.344;16.790;2023-01-27T11:36:30;101353.30;;;5.83;67.16
28701;BME280;15877;52.344;16.790;2023-01-27T11:39:05;101349.56;;;5.85;67.23
28701;BME280;15877;52.344;16.790;2023-01-27T11:41:39;101354.45;;;5.98;67.39
28701;BME280;15877;52.344;16.790;2023-01-27T11:44:18;101356.98;;;6.01;67.52
28701;BME280;15877;52.344;16.790;2023-01-27T11:46:52;101360.10;;;6.09;67.32
28701;BME280;15877;52.344;16.790;2023-01-27T11:49:28;101351.70;;;6.05;67.39
28701;BME280;15877;52.344;16.790;2023-01-27T11:52:09;101349.55;;;6.09;67.03
28701;BME280;15877;52.344;16.790;2023-01-27T11:54:47;101354.63;;;6.14;67.17
28701;BME280;15877;52.344;16.790;2023-01-27T11:57:23;101351.81;;;6.09;67.16
28701;BME280;15877;52.344;16.790;2023-01-27T12:00:03;101358.80;;;6.20;67.25
28701;BME280;15877;52.344;16.790;2023-01-27T12:02:40;101356.91;;;6.20;66.07
28701;BME280;15877;52.344;16.790;2023-01-27T12:05:18;101356.83;;;6.14;65.64
28701;BME280;15877;52.344;16.790;2023-01-27T12:07:56;101356.13;;;6.07;65.33
28701;BME280;15877;52.344;16.790;2023-01-27T12:10:32;101360.08;;;5.89;64.96
28701;BME280;15877;52.344;16.790;2023-01-27T12:13:14;101352.73;;;5.89;65.72
28701;BME280;15877;52.344;16.790;2023-01-27T12:15:50;101352.73;;;5.97;66.38
28701;BME280;15877;52.344;16.790;2023-01-27T12:18:23;101350.58;;;6.04;66.08
28701;BME280;15877;52.344;16.790;2023-01-27T12:21:01;101355.67;;;5.98;65.78
28701;BME280;15877;52.344;16.790;2023-01-27T12:23:36;101348.64;;;6.02;66.19
28701;BME280;15877;52.344;16.790;2023-01-27T12:26:12;101349.98;;;6.06;66.50
28701;BME280;15877;52.344;16.790;2023-01-27T12:28:50;101327.81;;;5.98;66.66
28701;BME280;15877;52.344;16.790;2023-01-27T12:31:27;101348.50;;;6.12;66.47
28701;BME280;15877;52.344;16.790;2023-01-27T12:34:03;101344.60;;;6.23;66.35
28701;BME280;15877;52.344;16.790;2023-01-27T12:36:39;101345.23;;;6.30;66.38
28701;BME280;15877;52.344;16.790;2023-01-27T12:39:26;101338.42;;;6.27;66.28
28701;BME280;15877;52.344;16.790;2023-01-27T12:42:01;101353.79;;;6.35;66.22
28701;BME280;15877;52.344;16.790;2023-01-27T12:44:42;101356.32;;;6.36;66.45
28701;BME280;15877;52.344;16.790;2023-01-27T12:47:22;101356.20;;;6.47;66.17
28701;BME280;15877;52.344;16.790;2023-01-27T12:50:18;101357.09;;;6.44;65.58
28701;BME280;15877;52.344;16.790;2023-01-27T12:52:55;101353.41;;;6.34;65.75
28701;BME280;15877;52.344;16.790;2023-01-27T12:55:37;101355.81;;;6.36;65.63
28701;BME280;15877;52.344;16.790;2023-01-27T12:58:31;101359.36;;;6.42;65.79
28701;BME280;15877;52.344;16.790;2023-01-27T13:01:06;101361.10;;;6.41;65.51
28701;BME280;15877;52.344;16.790;2023-01-27T13:03:53;101361.06;;;6.44;65.60
28701;BME280;15877;52.344;16.790;2023-01-27T13:06:33;101362.52;;;6.45;65.40
28701;BME280;15877;52.344;16.790;2023-01-27T13:09:10;101362.46;;;6.46;65.42
28701;BME280;15877;52.344;16.790;2023-01-27T13:11:50;101363.95;;;6.44;65.85
28701;BME280;15877;52.344;16.790;2023-01-27T13:14:23;101365.73;;;6.49;65.54
28701;BME280;15877;52.344;16.790;2023-01-27T13:16:59;101366.34;;;6.52;65.63
28701;BME280;15877;52.344;16.790;2023-01-27T13:19:36;101365.58;;;6.54;65.72
28701;BME280;15877;52.344;16.790;2023-01-27T13:22:17;101366.02;;;6.49;65.60
28701;BME280;15877;52.344;16.790;2023-01-27T13:24:57;101367.87;;;6.52;65.61
28701;BME280;15877;52.344;16.790;2023-01-27T13:27:37;101357.75;;;6.40;65.43
28701;BME280;15877;52.344;16.790;2023-01-27T13:30:18;101373.65;;;6.47;65.41
28701;BME280;15877;52.344;16.790;2023-01-27T13:32:55;101377.60;;;6.41;65.47
28701;BME280;15877;52.344;16.790;2023-01-27T13:35:33;101380.27;;;6.43;65.06
28701;BME280;15877;52.344;16.790;2023-01-27T13:38:14;101386.33;;;6.41;64.74